sensor_id;sensor_type;location;lat;lon;timestamp;temperature;humidity
51855;DHT22;37895;53.240;6.572;2024-02-15T00:01:00;11.10;99.90
51855;DHT22;37895;53.240;6.572;2024-02-15T00:03:26;11.10;99.90
51855;DHT22;37895;53.240;6.572;2024-02-15T00:05:52;11.10;99.90
51855;DHT22;37895;53.240;6.572;2024-02-15T00:08:18;11.00;99.90
51855;DHT22;37895;53.240;6.572;2024-02-15T00:10:45;11.10;99.90
51855;DHT22;37895;53.240;6.572;2024-02-15T00:13:12;11.10;99.90
51855;DHT22;37895;53.240;6.572;2024-02-15T00:15:38;11.10;99.90
51855;DHT22;37895;53.240;6.572;2024-02-15T00:18:03;11.00;99.90
51855;DHT22;37895;53.240;6.572;2024-02-15T00:20:29;11.00;99.90
51855;DHT22;37895;53.240;6.572;2024-02-15T00:22:55;11.10;99.90
51855;DHT22;37895;53.240;6.572;2024-02-15T00:25:21;11.10;99.90
51855;DHT22;37895;53.240;6.572;2024-02-15T00:27:47;11.10;99.90
51855;DHT22;37895;53.240;6.572;2024-02-15T00:30:13;11.10;99.90
51855;DHT22;37895;53.240;6.572;2024-02-15T00:32:38;11.10;99.90
51855;DHT22;37895;53.240;6.572;2024-02-15T00:35:05;11.10;99.90
51855;DHT22;37895;53.240;6.572;2024-02-15T00:37:35;11.10;99.90
51855;DHT22;37895;53.240;6.572;2024-02-15T00:40:00;11.10;99.90
51855;DHT22;37895;53.240;6.572;2024-02-15T00:42:29;11.10;99.90
51855;DHT22;37895;53.240;6.572;2024-02-15T00:44:57;11.10;99.90
51855;DHT22;37895;53.240;6.572;2024-02-15T00:47:23;11.10;99.90
51855;DHT22;37895;53.240;6.572;2024-02-15T00:49:48;11.10;99.90
51855;DHT22;37895;53.240;6.572;2024-02-15T00:52:15;11.20;99.90
51855;DHT22;37895;53.240;6.572;2024-02-15T00:54:43;11.20;99.90
51855;DHT22;37895;53.240;6.572;2024-02-15T00:57:08;11.20;99.90
51855;DHT22;37895;53.240;6.572;2024-02-15T00:59:34;11.20;99.90
51855;DHT22;37895;53.240;6.572;2024-02-15T01:02:01;11.20;99.90
51855;DHT22;37895;53.240;6.572;2024-02-15T01:04:28;11.20;99.90
51855;DHT22;37895;53.240;6.572;2024-02-15T01:06:54;11.20;99.90
51855;DHT22;37895;53.240;6.572;2024-02-15T01:09:19;11.20;99.90
51855;DHT22;37895;53.240;6.572;2024-02-15T01:11:45;11.20;99.90
51855;DHT22;37895;53.240;6.572;2024-02-15T01:14:11;11.20;99.90
51855;DHT22;37895;53.240;6.572;2024-02-15T01:16:37;11.20;99.90
51855;DHT22;37895;53.240;6.572;2024-02-15T01:19:03;11.20;99.90
51855;DHT22;37895;53.240;6.572;2024-02-15T01:21:28;11.20;99.90
51855;DHT22;37895;53.240;6.572;2024-02-15T01:23:54;11.20;99.90
51855;DHT22;37895;53.240;6.572;2024-02-15T01:26:20;11.20;99.90
51855;DHT22;37895;53.240;6.572;2024-02-15T01:28:46;11.20;99.90
51855;DHT22;37895;53.240;6.572;2024-02-15T01:31:11;11.20;99.90
51855;DHT22;37895;53.240;6.572;2024-02-15T01:33:38;11.20;99.90
51855;DHT22;37895;53.240;6.572;2024-02-15T01:36:04;11.20;99.90
51855;DHT22;37895;53.240;6.572;2024-02-15T01:38:30;11.20;99.90
51855;DHT22;37895;53.240;6.572;2024-02-15T01:40:56;11.20;99.90
51855;DHT22;37895;53.240;6.572;2024-02-15T01:43:22;11.20;99.90
51855;DHT22;37895;53.240;6.572;2024-02-15T01:45:47;11.20;99.90
51855;DHT22;37895;53.240;6.572;2024-02-15T01:48:15;11.20;99.90
51855;DHT22;37895;53.240;6.572;2024-02-15T01:50:41;11.20;99.90
51855;DHT22;37895;53.240;6.572;2024-02-15T01:53:09;11.20;99.90
51855;DHT22;37895;53.240;6.572;2024-02-15T01:55:35;11.20;99.90
51855;DHT22;37895;53.240;6.572;2024-02-15T01:58:01;11.20;99.90
51855;DHT22;37895;53.240;6.572;2024-02-15T02:00:27;11.20;99.90
51855;DHT22;37895;53.240;6.572;2024-02-15T02:02:53;11.20;99.90
51855;DHT22;37895;53.240;6.572;2024-02-15T02:05:20;11.20;99.90
51855;DHT22;37895;53.240;6.572;2024-02-15T02:07:46;11.20;99.90
51855;DHT22;37895;53.240;6.572;2024-02-15T02:10:12;11.20;99.90
51855;DHT22;37895;53.240;6.572;2024-02-15T02:12:39;11.20;99.90
51855;DHT22;37895;53.240;6.572;2024-02-15T02:15:06;11.20;99.90
51855;DHT22;37895;53.240;6.572;2024-02-15T02:17:33;11.20;99.90
51855;DHT22;37895;53.240;6.572;2024-02-15T02:19:59;11.30;99.90
51855;DHT22;37895;53.240;6.572;2024-02-15T02:22:25;11.20;99.90
51855;DHT22;37895;53.240;6.572;2024-02-15T02:25:07;11.20;99.90
51855;DHT22;37895;53.240;6.572;2024-02-15T02:27:36;11.20;99.90
51855;DHT22;37895;53.240;6.572;2024-02-15T02:30:11;11.20;99.90
51855;DHT22;37895;53.240;6.572;2024-02-15T02:32:43;11.20;99.90
51855;DHT22;37895;53.240;6.572;2024-02-15T02:35:08;11.20;99.90
51855;DHT22;37895;53.240;6.572;2024-02-15T02:37:40;11.30;99.90
51855;DHT22;37895;53.240;6.572;2024-02-15T02:40:06;11.30;99.90
51855;DHT22;37895;53.240;6.572;2024-02-15T02:42:56;11.30;99.90
51855;DHT22;37895;53.240;6.572;2024-02-15T02:45:22;11.30;99.90
51855;DHT22;37895;53.240;6.572;2024-02-15T02:47:49;11.30;99.90
51855;DHT22;37895;53.240;6.572;2024-02-15T02:50:15;11.30;99.90
51855;DHT22;37895;53.240;6.572;2024-02-15T02:52:41;11.30;99.90
51855;DHT22;37895;53.240;6.572;2024-02-15T02:55:07;11.30;99.90
51855;DHT22;37895;53.240;6.572;2024-02-15T02:57:38;11.40;99.90
51855;DHT22;37895;53.240;6.572;2024-02-15T03:00:14;11.30;99.90
51855;DHT22;37895;53.240;6.572;2024-02-15T03:02:42;11.30;99.90
51855;DHT22;37895;53.240;6.572;2024-02-15T03:05:09;11.30;99.90
51855;DHT22;37895;53.240;6.572;2024-02-15T03:07:36;11.30;99.90
51855;DHT22;37895;53.240;6.572;2024-02-15T03:10:02;11.30;99.90
51855;DHT22;37895;53.240;6.572;2024-02-15T03:12:30;11.30;99.90
51855;DHT22;37895;53.240;6.572;2024-02-15T03:14:56;11.30;99.90
51855;DHT22;37895;53.240;6.572;2024-02-15T03:17:23;11.30;99.90
51855;DHT22;37895;53.240;6.572;2024-02-15T03:19:49;11.30;99.90
51855;DHT22;37895;53.240;6.572;2024-02-15T03:22:15;11.30;99.90
51855;DHT22;37895;53.240;6.572;2024-02-15T03:24:40;11.30;99.90
51855;DHT22;37895;53.240;6.572;2024-02-15T03:27:07;11.30;99.90
51855;DHT22;37895;53.240;6.572;2024-02-15T03:29:32;11.30;99.90
51855;DHT22;37895;53.240;6.572;2024-02-15T03:32:01;11.30;99.90
51855;DHT22;37895;53.240;6.572;2024-02-15T03:34:27;11.30;99.90
51855;DHT22;37895;53.240;6.572;2024-02-15T03:36:52;11.30;99.90
51855;DHT22;37895;53.240;6.572;2024-02-15T03:39:19;11.30;99.90
51855;DHT22;37895;53.240;6.572;2024-02-15T03:41:46;11.30;99.90
51855;DHT22;37895;53.240;6.572;2024-02-15T03:44:14;11.30;99.90
51855;DHT22;37895;53.240;6.572;2024-02-15T03:46:40;11.30;99.90
51855;DHT22;37895;53.240;6.572;2024-02-15T03:49:06;11.30;99.90
51855;DHT22;37895;53.240;6.572;2024-02-15T03:51:34;11.30;99.90
51855;DHT22;37895;53.240;6.572;2024-02-15T03:54:00;11.30;99.90
51855;DHT22;37895;53.240;6.572;2024-02-15T03:56:25;11.40;99.90
51855;DHT22;37895;53.240;6.572;2024-02-15T03:58:51;11.40;99.90
51855;DHT22;37895;53.240;6.572;2024-02-15T04:01:17;11.40;99.90
51855;DHT22;37895;53.240;6.572;2024-02-15T04:03:43;11.40;99.90
51855;DHT22;37895;53.240;6.572;2024-02-15T04:06:08;11.40;99.90
51855;DHT22;37895;53.240;6.572;2024-02-15T04:08:38;11.40;99.90
51855;DHT22;37895;53.240;6.572;2024-02-15T04:11:07;11.40;99.90
51855;DHT22;37895;53.240;6.572;2024-02-15T04:13:33;11.40;99.90
51855;DHT22;37895;53.240;6.572;2024-02-15T04:15:59;11.40;99.90
51855;DHT22;37895;53.240;6.572;2024-02-15T04:18:25;11.40;99.90
51855;DHT22;37895;53.240;6.572;2024-02-15T04:20:50;11.40;99.90
51855;DHT22;37895;53.240;6.572;2024-02-15T04:23:17;11.50;99.90
51855;DHT22;37895;53.240;6.572;2024-02-15T04:25:43;11.50;99.90
51855;DHT22;37895;53.240;6.572;2024-02-15T04:28:12;11.50;99.90
51855;DHT22;37895;53.240;6.572;2024-02-15T04:30:37;11.50;99.90
51855;DHT22;37895;53.240;6.572;2024-02-15T04:33:04;11.50;99.90
51855;DHT22;37895;53.240;6.572;2024-02-15T04:35:31;11.50;99.90
51855;DHT22;37895;53.240;6.572;2024-02-15T04:37:56;11.50;99.90
51855;DHT22;37895;53.240;6.572;2024-02-15T04:40:23;11.50;99.90
51855;DHT22;37895;53.240;6.572;2024-02-15T04:42:48;11.50;99.90
51855;DHT22;37895;53.240;6.572;2024-02-15T04:45:15;11.40;99.90
51855;DHT22;37895;53.240;6.572;2024-02-15T04:47:41;11.40;99.90
51855;DHT22;37895;53.240;6.572;2024-02-15T04:50:07;11.50;99.90
51855;DHT22;37895;53.240;6.572;2024-02-15T04:52:33;11.50;99.90
51855;DHT22;37895;53.240;6.572;2024-02-15T04:54:58;11.50;99.90
51855;DHT22;37895;53.240;6.572;2024-02-15T04:57:27;11.50;99.90
51855;DHT22;37895;53.240;6.572;2024-02-15T04:59:56;11.50;99.90
51855;DHT22;37895;53.240;6.572;2024-02-15T05:02:21;11.50;99.90
51855;DHT22;37895;53.240;6.572;2024-02-15T05:04:53;11.50;99.90
51855;DHT22;37895;53.240;6.572;2024-02-15T05:07:22;11.60;99.90
51855;DHT22;37895;53.240;6.572;2024-02-15T05:09:48;11.50;99.90
51855;DHT22;37895;53.240;6.572;2024-02-15T05:12:22;11.50;99.90
51855;DHT22;37895;53.240;6.572;2024-02-15T05:14:49;11.60;99.90
51855;DHT22;37895;53.240;6.572;2024-02-15T05:17:16;11.50;99.90
51855;DHT22;37895;53.240;6.572;2024-02-15T05:19:42;11.60;99.90
51855;DHT22;37895;53.240;6.572;2024-02-15T05:22:07;11.60;99.90
51855;DHT22;37895;53.240;6.572;2024-02-15T05:24:33;11.60;99.90
51855;DHT22;37895;53.240;6.572;2024-02-15T05:26:59;11.60;99.90
51855;DHT22;37895;53.240;6.572;2024-02-15T05:29:25;11.50;99.90
51855;DHT22;37895;53.240;6.572;2024-02-15T05:31:50;11.60;99.90
51855;DHT22;37895;53.240;6.572;2024-02-15T05:34:17;11.60;99.90
51855;DHT22;37895;53.240;6.572;2024-02-15T05:36:42;11.60;99.90
51855;DHT22;37895;53.240;6.572;2024-02-15T05:39:08;11.60;99.90
51855;DHT22;37895;53.240;6.572;2024-02-15T05:41:36;11.60;99.90
51855;DHT22;37895;53.240;6.572;2024-02-15T05:44:02;11.60;99.90
51855;DHT22;37895;53.240;6.572;2024-02-15T05:46:32;11.60;99.90
51855;DHT22;37895;53.240;6.572;2024-02-15T05:48:59;11.60;99.90
51855;DHT22;37895;53.240;6.572;2024-02-15T05:51:25;11.60;99.90
51855;DHT22;37895;53.240;6.572;2024-02-15T05:53:50;11.60;99.90
51855;DHT22;37895;53.240;6.572;2024-02-15T05:56:16;11.60;99.90
51855;DHT22;37895;53.240;6.572;2024-02-15T05:58:42;11.70;99.90
51855;DHT22;37895;53.240;6.572;2024-02-15T06:01:07;11.70;99.90
51855;DHT22;37895;53.240;6.572;2024-02-15T06:03:37;11.70;99.90
51855;DHT22;37895;53.240;6.572;2024-02-15T06:06:05;11.70;99.90
51855;DHT22;37895;53.240;6.572;2024-02-15T06:08:34;11.80;99.90
51855;DHT22;37895;53.240;6.572;2024-02-15T06:11:00;11.70;99.90
51855;DHT22;37895;53.240;6.572;2024-02-15T06:13:26;11.70;99.90
51855;DHT22;37895;53.240;6.572;2024-02-15T06:15:53;11.70;99.90
51855;DHT22;37895;53.240;6.572;2024-02-15T06:18:25;11.70;99.90
51855;DHT22;37895;53.240;6.572;2024-02-15T06:20:51;11.70;99.90
51855;DHT22;37895;53.240;6.572;2024-02-15T06:23:18;11.70;99.90
51855;DHT22;37895;53.240;6.572;2024-02-15T06:25:44;11.80;99.90
51855;DHT22;37895;53.240;6.572;2024-02-15T06:28:10;11.80;99.90
51855;DHT22;37895;53.240;6.572;2024-02-15T06:30:45;11.80;99.90
51855;DHT22;37895;53.240;6.572;2024-02-15T06:33:30;11.80;99.90
51855;DHT22;37895;53.240;6.572;2024-02-15T06:36:14;11.80;99.90
51855;DHT22;37895;53.240;6.572;2024-02-15T06:38:58;11.80;99.90
51855;DHT22;37895;53.240;6.572;2024-02-15T06:41:42;11.80;99.90
51855;DHT22;37895;53.240;6.572;2024-02-15T06:44:08;11.80;99.90
51855;DHT22;37895;53.240;6.572;2024-02-15T06:46:33;11.80;99.90
51855;DHT22;37895;53.240;6.572;2024-02-15T06:48:59;11.80;99.90
51855;DHT22;37895;53.240;6.572;2024-02-15T06:51:24;11.80;99.90
51855;DHT22;37895;53.240;6.572;2024-02-15T06:53:50;11.80;99.90
51855;DHT22;37895;53.240;6.572;2024-02-15T06:56:17;11.80;99.90
51855;DHT22;37895;53.240;6.572;2024-02-15T06:58:43;11.80;99.90
51855;DHT22;37895;53.240;6.572;2024-02-15T07:01:09;11.80;99.90
51855;DHT22;37895;53.240;6.572;2024-02-15T07:03:34;11.80;99.90
51855;DHT22;37895;53.240;6.572;2024-02-15T07:06:01;11.80;99.90
51855;DHT22;37895;53.240;6.572;2024-02-15T07:08:28;11.80;99.90
51855;DHT22;37895;53.240;6.572;2024-02-15T07:10:55;11.80;99.90
51855;DHT22;37895;53.240;6.572;2024-02-15T07:13:20;11.80;99.90
51855;DHT22;37895;53.240;6.572;2024-02-15T07:15:46;11.80;99.90
51855;DHT22;37895;53.240;6.572;2024-02-15T07:18:12;11.90;99.90
51855;DHT22;37895;53.240;6.572;2024-02-15T07:20:41;11.90;99.90
51855;DHT22;37895;53.240;6.572;2024-02-15T07:23:07;11.90;99.90
51855;DHT22;37895;53.240;6.572;2024-02-15T07:25:33;11.90;99.90
51855;DHT22;37895;53.240;6.572;2024-02-15T07:27:58;11.80;99.90
51855;DHT22;37895;53.240;6.572;2024-02-15T07:30:24;11.90;99.90
51855;DHT22;37895;53.240;6.572;2024-02-15T07:32:50;11.90;99.90
51855;DHT22;37895;53.240;6.572;2024-02-15T07:35:16;11.90;99.90
51855;DHT22;37895;53.240;6.572;2024-02-15T07:37:52;11.90;99.90
51855;DHT22;37895;53.240;6.572;2024-02-15T07:40:21;11.90;99.90
51855;DHT22;37895;53.240;6.572;2024-02-15T07:42:48;11.90;99.90
51855;DHT22;37895;53.240;6.572;2024-02-15T07:45:14;11.90;99.90
51855;DHT22;37895;53.240;6.572;2024-02-15T07:47:40;11.90;99.90
51855;DHT22;37895;53.240;6.572;2024-02-15T07:50:05;11.90;99.90
51855;DHT22;37895;53.240;6.572;2024-02-15T07:52:35;11.90;99.90
51855;DHT22;37895;53.240;6.572;2024-02-15T07:55:01;11.90;99.90
51855;DHT22;37895;53.240;6.572;2024-02-15T07:57:34;11.90;99.90
51855;DHT22;37895;53.240;6.572;2024-02-15T08:00:00;11.90;99.90
51855;DHT22;37895;53.240;6.572;2024-02-15T08:02:26;11.90;99.90
51855;DHT22;37895;53.240;6.572;2024-02-15T08:04:54;11.90;99.90
51855;DHT22;37895;53.240;6.572;2024-02-15T08:07:20;11.90;99.90
51855;DHT22;37895;53.240;6.572;2024-02-15T08:09:46;11.90;99.90
51855;DHT22;37895;53.240;6.572;2024-02-15T08:12:16;11.90;99.90
51855;DHT22;37895;53.240;6.572;2024-02-15T08:14:44;11.90;99.90
51855;DHT22;37895;53.240;6.572;2024-02-15T08:17:09;11.90;99.90
51855;DHT22;37895;53.240;6.572;2024-02-15T08:19:45;11.90;99.90
51855;DHT22;37895;53.240;6.572;2024-02-15T08:22:11;11.90;99.90
51855;DHT22;37895;53.240;6.572;2024-02-15T08:24:37;11.90;99.90
51855;DHT22;37895;53.240;6.572;2024-02-15T08:27:02;11.90;99.90
51855;DHT22;37895;53.240;6.572;2024-02-15T08:29:30;11.90;99.90
51855;DHT22;37895;53.240;6.572;2024-02-15T08:31:55;11.90;99.90
51855;DHT22;37895;53.240;6.572;2024-02-15T08:34:21;11.90;99.90
51855;DHT22;37895;53.240;6.572;2024-02-15T08:36:47;12.00;99.90
51855;DHT22;37895;53.240;6.572;2024-02-15T08:39:14;12.00;99.90
51855;DHT22;37895;53.240;6.572;2024-02-15T08:41:41;12.00;99.90
51855;DHT22;37895;53.240;6.572;2024-02-15T08:44:07;12.00;99.90
51855;DHT22;37895;53.240;6.572;2024-02-15T08:46:37;12.00;99.90
51855;DHT22;37895;53.240;6.572;2024-02-15T08:49:03;12.00;99.90
51855;DHT22;37895;53.240;6.572;2024-02-15T08:51:29;12.00;99.90
51855;DHT22;37895;53.240;6.572;2024-02-15T08:53:56;12.00;99.90
51855;DHT22;37895;53.240;6.572;2024-02-15T08:56:21;12.00;99.90
51855;DHT22;37895;53.240;6.572;2024-02-15T08:58:48;12.00;99.90
51855;DHT22;37895;53.240;6.572;2024-02-15T09:01:14;12.00;99.90
51855;DHT22;37895;53.240;6.572;2024-02-15T09:03:40;12.00;99.90
51855;DHT22;37895;53.240;6.572;2024-02-15T09:06:06;12.00;99.90
51855;DHT22;37895;53.240;6.572;2024-02-15T09:08:33;12.10;99.90
51855;DHT22;37895;53.240;6.572;2024-02-15T09:10:59;12.10;99.90
51855;DHT22;37895;53.240;6.572;2024-02-15T09:13:24;12.10;99.90
51855;DHT22;37895;53.240;6.572;2024-02-15T09:15:50;12.10;99.90
51855;DHT22;37895;53.240;6.572;2024-02-15T09:18:16;12.10;99.90
51855;DHT22;37895;53.240;6.572;2024-02-15T09:20:43;12.10;99.90
51855;DHT22;37895;53.240;6.572;2024-02-15T09:23:13;12.10;99.90
51855;DHT22;37895;53.240;6.572;2024-02-15T09:25:40;12.20;99.90
51855;DHT22;37895;53.240;6.572;2024-02-15T09:28:06;12.20;99.90
51855;DHT22;37895;53.240;6.572;2024-02-15T09:30:31;12.20;99.90
51855;DHT22;37895;53.240;6.572;2024-02-15T09:32:58;12.20;99.90
51855;DHT22;37895;53.240;6.572;2024-02-15T09:35:25;12.20;99.90
51855;DHT22;37895;53.240;6.572;2024-02-15T09:37:51;12.20;99.90
51855;DHT22;37895;53.240;6.572;2024-02-15T09:40:18;12.30;99.90
51855;DHT22;37895;53.240;6.572;2024-02-15T09:42:44;12.30;99.90
51855;DHT22;37895;53.240;6.572;2024-02-15T09:45:11;12.30;99.90
51855;DHT22;37895;53.240;6.572;2024-02-15T09:47:38;12.30;99.90
51855;DHT22;37895;53.240;6.572;2024-02-15T09:50:10;12.40;99.90
51855;DHT22;37895;53.240;6.572;2024-02-15T09:52:38;12.40;99.90
51855;DHT22;37895;53.240;6.572;2024-02-15T09:55:05;12.40;99.90
51855;DHT22;37895;53.240;6.572;2024-02-15T09:57:31;12.50;99.90
51855;DHT22;37895;53.240;6.572;2024-02-15T09:59:58;12.50;99.90
51855;DHT22;37895;53.240;6.572;2024-02-15T10:02:26;12.60;99.90
51855;DHT22;37895;53.240;6.572;2024-02-15T10:04:53;12.60;99.90
51855;DHT22;37895;53.240;6.572;2024-02-15T10:07:25;12.70;99.90
51855;DHT22;37895;53.240;6.572;2024-02-15T10:09:52;12.80;99.90
51855;DHT22;37895;53.240;6.572;2024-02-15T10:12:18;12.80;99.90
51855;DHT22;37895;53.240;6.572;2024-02-15T10:14:50;12.80;99.90
51855;DHT22;37895;53.240;6.572;2024-02-15T10:17:17;12.90;99.90
51855;DHT22;37895;53.240;6.572;2024-02-15T10:19:43;12.90;99.90
51855;DHT22;37895;53.240;6.572;2024-02-15T10:22:10;12.90;99.90
51855;DHT22;37895;53.240;6.572;2024-02-15T10:24:37;12.90;99.90
51855;DHT22;37895;53.240;6.572;2024-02-15T10:27:05;12.90;99.90
51855;DHT22;37895;53.240;6.572;2024-02-15T10:29:36;12.90;99.90
51855;DHT22;37895;53.240;6.572;2024-02-15T10:32:02;12.90;99.90
51855;DHT22;37895;53.240;6.572;2024-02-15T10:34:28;12.90;99.90
51855;DHT22;37895;53.240;6.572;2024-02-15T10:36:56;13.00;99.90
51855;DHT22;37895;53.240;6.572;2024-02-15T10:39:35;13.10;99.90
51855;DHT22;37895;53.240;6.572;2024-02-15T10:42:00;13.10;99.90
51855;DHT22;37895;53.240;6.572;2024-02-15T10:44:26;13.20;99.90
51855;DHT22;37895;53.240;6.572;2024-02-15T10:46:53;13.20;99.90
51855;DHT22;37895;53.240;6.572;2024-02-15T10:49:23;13.20;99.90
51855;DHT22;37895;53.240;6.572;2024-02-15T10:51:58;13.20;99.90
51855;DHT22;37895;53.240;6.572;2024-02-15T10:55:28;13.10;99.90
51855;DHT22;37895;53.240;6.572;2024-02-15T10:57:37;13.10;99.90
51855;DHT22;37895;53.240;6.572;2024-02-15T11:00:06;13.10;99.90
51855;DHT22;37895;53.240;6.572;2024-02-15T11:02:46;13.10;99.90
51855;DHT22;37895;53.240;6.572;2024-02-15T11:05:14;13.10;99.90
51855;DHT22;37895;53.240;6.572;2024-02-15T11:07:46;13.10;99.90
51855;DHT22;37895;53.240;6.572;2024-02-15T11:10:11;13.10;99.90
51855;DHT22;37895;53.240;6.572;2024-02-15T11:12:42;13.00;99.90
51855;DHT22;37895;53.240;6.572;2024-02-15T11:15:08;13.00;99.90
51855;DHT22;37895;53.240;6.572;2024-02-15T11:20:06;13.00;99.90
51855;DHT22;37895;53.240;6.572;2024-02-15T11:22:35;13.00;99.90
51855;DHT22;37895;53.240;6.572;2024-02-15T11:25:08;13.00;99.90
51855;DHT22;37895;53.240;6.572;2024-02-15T11:27:40;13.00;99.90
51855;DHT22;37895;53.240;6.572;2024-02-15T11:30:07;13.00;99.90
51855;DHT22;37895;53.240;6.572;2024-02-15T11:42:53;13.00;99.90
51855;DHT22;37895;53.240;6.572;2024-02-15T11:45:19;13.00;99.90
51855;DHT22;37895;53.240;6.572;2024-02-15T11:47:49;13.00;99.90
51855;DHT22;37895;53.240;6.572;2024-02-15T11:50:22;13.00;99.90
51855;DHT22;37895;53.240;6.572;2024-02-15T11:52:49;13.00;99.90
51855;DHT22;37895;53.240;6.572;2024-02-15T11:55:19;13.00;99.90
51855;DHT22;37895;53.240;6.572;2024-02-15T11:57:55;13.00;99.90
51855;DHT22;37895;53.240;6.572;2024-02-15T12:00:28;13.10;99.90
51855;DHT22;37895;53.240;6.572;2024-02-15T12:03:14;13.00;99.90
51855;DHT22;37895;53.240;6.572;2024-02-15T12:05:59;13.10;99.90
51855;DHT22;37895;53.240;6.572;2024-02-15T12:08:47;13.00;99.90
51855;DHT22;37895;53.240;6.572;2024-02-15T12:11:32;13.10;99.90
51855;DHT22;37895;53.240;6.572;2024-02-15T12:14:16;13.10;99.90
51855;DHT22;37895;53.240;6.572;2024-02-15T12:17:08;13.10;99.90
51855;DHT22;37895;53.240;6.572;2024-02-15T12:19:54;13.10;99.90
51855;DHT22;37895;53.240;6.572;2024-02-15T12:22:36;13.10;99.90
51855;DHT22;37895;53.240;6.572;2024-02-15T12:25:06;13.20;99.90
51855;DHT22;37895;53.240;6.572;2024-02-15T12:27:39;13.20;99.90
51855;DHT22;37895;53.240;6.572;2024-02-15T12:30:05;13.10;99.90
51855;DHT22;37895;53.240;6.572;2024-02-15T12:32:32;13.10;99.90
51855;DHT22;37895;53.240;6.572;2024-02-15T12:35:15;13.10;99.90
51855;DHT22;37895;53.240;6.572;2024-02-15T12:37:49;13.20;99.90
51855;DHT22;37895;53.240;6.572;2024-02-15T12:40:34;13.20;99.90
51855;DHT22;37895;53.240;6.572;2024-02-15T12:43:00;13.20;99.90
51855;DHT22;37895;53.240;6.572;2024-02-15T12:45:26;13.20;99.90
51855;DHT22;37895;53.240;6.572;2024-02-15T12:47:54;13.20;99.90
51855;DHT22;37895;53.240;6.572;2024-02-15T12:50:30;13.20;99.90
51855;DHT22;37895;53.240;6.572;2024-02-15T12:52:56;13.20;99.90
51855;DHT22;37895;53.240;6.572;2024-02-15T12:55:32;13.10;99.90
51855;DHT22;37895;53.240;6.572;2024-02-15T12:58:01;13.10;99.90
51855;DHT22;37895;53.240;6.572;2024-02-15T13:00:32;13.10;99.90
51855;DHT22;37895;53.240;6.572;2024-02-15T13:02:59;13.10;99.90
51855;DHT22;37895;53.240;6.572;2024-02-15T13:05:26;13.10;99.90
51855;DHT22;37895;53.240;6.572;2024-02-15T13:07:53;13.20;99.90
51855;DHT22;37895;53.240;6.572;2024-02-15T13:10:29;13.20;99.90
51855;DHT22;37895;53.240;6.572;2024-02-15T13:12:55;13.20;99.90
51855;DHT22;37895;53.240;6.572;2024-02-15T13:15:22;13.20;99.90
51855;DHT22;37895;53.240;6.572;2024-02-15T13:17:53;13.20;99.90
51855;DHT22;37895;53.240;6.572;2024-02-15T13:20:22;13.20;99.90
51855;DHT22;37895;53.240;6.572;2024-02-15T13:23:09;13.30;99.90
51855;DHT22;37895;53.240;6.572;2024-02-15T13:25:41;13.30;99.90
51855;DHT22;37895;53.240;6.572;2024-02-15T13:28:08;13.30;99.90
51855;DHT22;37895;53.240;6.572;2024-02-15T13:30:36;13.20;99.90
51855;DHT22;37895;53.240;6.572;2024-02-15T13:33:02;13.30;99.90
51855;DHT22;37895;53.240;6.572;2024-02-15T13:35:27;13.20;99.90
51855;DHT22;37895;53.240;6.572;2024-02-15T13:37:54;13.20;99.90
51855;DHT22;37895;53.240;6.572;2024-02-15T13:40:21;13.10;99.90
51855;DHT22;37895;53.240;6.572;2024-02-15T13:42:51;13.20;99.90
51855;DHT22;37895;53.240;6.572;2024-02-15T13:45:27;13.10;99.90
51855;DHT22;37895;53.240;6.572;2024-02-15T13:47:56;13.10;99.90
51855;DHT22;37895;53.240;6.572;2024-02-15T13:50:23;13.10;99.90
51855;DHT22;37895;53.240;6.572;2024-02-15T13:52:49;13.10;99.90
51855;DHT22;37895;53.240;6.572;2024-02-15T13:55:16;13.10;99.90
51855;DHT22;37895;53.240;6.572;2024-02-15T13:57:43;13.10;99.90
51855;DHT22;37895;53.240;6.572;2024-02-15T14:00:12;13.10;99.90
51855;DHT22;37895;53.240;6.572;2024-02-15T14:02:40;13.10;99.90
51855;DHT22;37895;53.240;6.572;2024-02-15T14:05:07;13.10;99.90
51855;DHT22;37895;53.240;6.572;2024-02-15T14:07:37;13.10;99.90
51855;DHT22;37895;53.240;6.572;2024-02-15T14:10:05;13.10;99.90
51855;DHT22;37895;53.240;6.572;2024-02-15T14:12:31;13.10;99.90
51855;DHT22;37895;53.240;6.572;2024-02-15T14:14:58;13.20;99.90
51855;DHT22;37895;53.240;6.572;2024-02-15T14:17:23;13.10;99.90
51855;DHT22;37895;53.240;6.572;2024-02-15T14:19:49;13.10;99.90
51855;DHT22;37895;53.240;6.572;2024-02-15T14:22:15;13.20;99.90
51855;DHT22;37895;53.240;6.572;2024-02-15T14:24:44;13.10;99.90
51855;DHT22;37895;53.240;6.572;2024-02-15T14:27:11;13.10;99.90
51855;DHT22;37895;53.240;6.572;2024-02-15T14:29:37;13.20;99.90
51855;DHT22;37895;53.240;6.572;2024-02-15T14:32:11;13.20;99.90
51855;DHT22;37895;53.240;6.572;2024-02-15T14:34:55;13.20;99.90
51855;DHT22;37895;53.240;6.572;2024-02-15T14:37:22;13.20;99.90
51855;DHT22;37895;53.240;6.572;2024-02-15T14:39:47;13.20;99.90
51855;DHT22;37895;53.240;6.572;2024-02-15T14:42:13;13.20;99.90
51855;DHT22;37895;53.240;6.572;2024-02-15T14:44:39;13.20;99.90
51855;DHT22;37895;53.240;6.572;2024-02-15T14:47:06;13.20;99.90
51855;DHT22;37895;53.240;6.572;2024-02-15T14:49:32;13.10;99.90
51855;DHT22;37895;53.240;6.572;2024-02-15T14:51:58;13.20;99.90
51855;DHT22;37895;53.240;6.572;2024-02-15T14:54:23;13.10;99.90
51855;DHT22;37895;53.240;6.572;2024-02-15T14:56:50;13.20;99.90
51855;DHT22;37895;53.240;6.572;2024-02-15T14:59:15;13.20;99.90
51855;DHT22;37895;53.240;6.572;2024-02-15T15:01:41;13.10;99.90
51855;DHT22;37895;53.240;6.572;2024-02-15T15:04:07;13.10;99.90
51855;DHT22;37895;53.240;6.572;2024-02-15T15:06:35;13.10;99.90
51855;DHT22;37895;53.240;6.572;2024-02-15T15:09:19;13.10;99.90
51855;DHT22;37895;53.240;6.572;2024-02-15T15:12:04;13.10;99.90
51855;DHT22;37895;53.240;6.572;2024-02-15T15:14:49;13.20;99.90
51855;DHT22;37895;53.240;6.572;2024-02-15T15:17:14;13.20;99.90
51855;DHT22;37895;53.240;6.572;2024-02-15T15:19:42;13.20;99.90
51855;DHT22;37895;53.240;6.572;2024-02-15T15:22:08;13.20;99.90
51855;DHT22;37895;53.240;6.572;2024-02-15T15:24:34;13.30;99.90
51855;DHT22;37895;53.240;6.572;2024-02-15T15:26:59;13.30;99.90
51855;DHT22;37895;53.240;6.572;2024-02-15T15:29:26;13.30;99.90
51855;DHT22;37895;53.240;6.572;2024-02-15T15:31:52;13.30;99.90
51855;DHT22;37895;53.240;6.572;2024-02-15T15:34:18;13.30;99.90
51855;DHT22;37895;53.240;6.572;2024-02-15T15:36:45;13.30;99.90
51855;DHT22;37895;53.240;6.572;2024-02-15T15:39:13;13.30;99.90
51855;DHT22;37895;53.240;6.572;2024-02-15T15:41:40;13.30;99.90
51855;DHT22;37895;53.240;6.572;2024-02-15T15:44:08;13.30;99.90
51855;DHT22;37895;53.240;6.572;2024-02-15T15:46:34;13.30;99.90
51855;DHT22;37895;53.240;6.572;2024-02-15T15:49:00;13.30;99.90